EISG/SXL METAR and TAF weather

Enter ICAO airport designator
Station Type Date Time Source
EISG METAR 2018/01/21 12:00 UTC NOAA

EISG 211200Z 18005KT 130V230 9999 OVC015 11/10 Q0999


Station Type Date Time Source
EISG Decoded METAR 2018/01/21 12:00 UTC NOAA

Station name not available
Jan 21, 2018 - 07:00 AM EST / 2018.01.21 1200 UTC
Wind: from the S (180 degrees) at 6 MPH (5 KT) (direction variable):0
Visibility: greater than 7 mile(s):0
Sky conditions: overcast
Temperature: 51 F (11 C)
Dew Point: 50 F (10 C)
Relative Humidity: 93%
Pressure (altimeter): 29.50 in. Hg (0999 hPa)
ob: EISG 211200Z 18005KT 130V230 9999 OVC015 11/10 Q0999
cycle: 12

Station Type Date Time Source
EISG TAF UTC NOAA

Error!


Example: see airport list